sensor_id;sensor_type;location;lat;lon;timestamp;P1;durP1;ratioP1;P2;durP2;ratioP2
21501;SDS011;27639;48.674;9.242;2023-03-01T00:00:36;17.85;;;12.32;;
21501;SDS011;27639;48.674;9.242;2023-03-01T00:03:02;16.92;;;11.27;;
21501;SDS011;27639;48.674;9.242;2023-03-01T00:05:28;18.60;;;11.40;;
21501;SDS011;27639;48.674;9.242;2023-03-01T00:07:53;20.30;;;12.05;;
21501;SDS011;27639;48.674;9.242;2023-03-01T00:10:19;17.35;;;11.07;;
21501;SDS011;27639;48.674;9.242;2023-03-01T00:12:44;16.88;;;11.40;;
21501;SDS011;27639;48.674;9.242;2023-03-01T00:15:10;17.48;;;11.73;;
21501;SDS011;27639;48.674;9.242;2023-03-01T00:17:36;16.15;;;11.65;;
21501;SDS011;27639;48.674;9.242;2023-03-01T00:20:02;18.02;;;11.77;;
21501;SDS011;27639;48.674;9.242;2023-03-01T00:22:28;18.58;;;12.10;;
21501;SDS011;27639;48.674;9.242;2023-03-01T00:24:53;17.48;;;11.40;;
21501;SDS011;27639;48.674;9.242;2023-03-01T00:27:19;17.88;;;11.95;;
21501;SDS011;27639;48.674;9.242;2023-03-01T00:29:45;17.08;;;11.95;;
21501;SDS011;27639;48.674;9.242;2023-03-01T00:32:10;18.95;;;11.60;;
21501;SDS011;27639;48.674;9.242;2023-03-01T00:34:36;17.20;;;11.60;;
21501;SDS011;27639;48.674;9.242;2023-03-01T00:37:01;18.25;;;11.32;;
21501;SDS011;27639;48.674;9.242;2023-03-01T00:39:30;17.25;;;12.15;;
21501;SDS011;27639;48.674;9.242;2023-03-01T00:41:57;18.83;;;11.70;;
21501;SDS011;27639;48.674;9.242;2023-03-01T00:44:22;17.95;;;12.13;;
21501;SDS011;27639;48.674;9.242;2023-03-01T00:46:48;20.15;;;12.95;;
21501;SDS011;27639;48.674;9.242;2023-03-01T00:49:13;17.58;;;11.43;;
21501;SDS011;27639;48.674;9.242;2023-03-01T00:51:39;16.95;;;11.63;;
21501;SDS011;27639;48.674;9.242;2023-03-01T00:54:07;16.48;;;11.75;;
21501;SDS011;27639;48.674;9.242;2023-03-01T00:56:33;17.98;;;11.10;;
21501;SDS011;27639;48.674;9.242;2023-03-01T00:58:59;17.63;;;11.70;;
21501;SDS011;27639;48.674;9.242;2023-03-01T01:01:26;17.67;;;11.93;;
21501;SDS011;27639;48.674;9.242;2023-03-01T01:03:57;19.40;;;12.15;;
21501;SDS011;27639;48.674;9.242;2023-03-01T01:06:26;18.00;;;12.23;;
21501;SDS011;27639;48.674;9.242;2023-03-01T01:08:54;17.73;;;12.48;;
21501;SDS011;27639;48.674;9.242;2023-03-01T01:11:20;18.83;;;11.45;;
21501;SDS011;27639;48.674;9.242;2023-03-01T01:13:47;19.17;;;12.43;;
21501;SDS011;27639;48.674;9.242;2023-03-01T01:16:13;19.10;;;12.13;;
21501;SDS011;27639;48.674;9.242;2023-03-01T01:18:40;18.52;;;12.25;;
21501;SDS011;27639;48.674;9.242;2023-03-01T01:21:07;18.15;;;11.50;;
21501;SDS011;27639;48.674;9.242;2023-03-01T01:23:35;16.60;;;11.55;;
21501;SDS011;27639;48.674;9.242;2023-03-01T01:26:08;18.35;;;12.60;;
21501;SDS011;27639;48.674;9.242;2023-03-01T01:28:36;19.35;;;11.88;;
21501;SDS011;27639;48.674;9.242;2023-03-01T01:31:01;19.15;;;11.88;;
21501;SDS011;27639;48.674;9.242;2023-03-01T01:33:27;19.98;;;13.20;;
21501;SDS011;27639;48.674;9.242;2023-03-01T01:35:53;19.10;;;12.05;;
21501;SDS011;27639;48.674;9.242;2023-03-01T01:38:19;17.90;;;12.02;;
21501;SDS011;27639;48.674;9.242;2023-03-01T01:40:45;16.67;;;11.85;;
21501;SDS011;27639;48.674;9.242;2023-03-01T01:43:16;18.90;;;11.82;;
21501;SDS011;27639;48.674;9.242;2023-03-01T01:45:48;18.70;;;11.82;;
21501;SDS011;27639;48.674;9.242;2023-03-01T01:48:16;21.48;;;11.88;;
21501;SDS011;27639;48.674;9.242;2023-03-01T01:50:45;19.25;;;11.98;;
21501;SDS011;27639;48.674;9.242;2023-03-01T01:53:19;18.42;;;12.25;;
21501;SDS011;27639;48.674;9.242;2023-03-01T01:55:47;16.67;;;12.00;;
21501;SDS011;27639;48.674;9.242;2023-03-01T01:58:18;18.00;;;11.75;;
21501;SDS011;27639;48.674;9.242;2023-03-01T02:00:45;19.17;;;13.02;;
21501;SDS011;27639;48.674;9.242;2023-03-01T02:03:13;19.33;;;12.63;;
21501;SDS011;27639;48.674;9.242;2023-03-01T02:06:00;19.73;;;12.95;;
21501;SDS011;27639;48.674;9.242;2023-03-01T02:08:29;18.83;;;12.40;;
21501;SDS011;27639;48.674;9.242;2023-03-01T02:10:57;19.15;;;12.75;;
21501;SDS011;27639;48.674;9.242;2023-03-01T02:13:24;18.92;;;11.88;;
21501;SDS011;27639;48.674;9.242;2023-03-01T02:15:50;17.45;;;12.32;;
21501;SDS011;27639;48.674;9.242;2023-03-01T02:18:17;18.25;;;12.55;;
21501;SDS011;27639;48.674;9.242;2023-03-01T02:20:47;19.52;;;12.68;;
21501;SDS011;27639;48.674;9.242;2023-03-01T02:23:24;17.65;;;12.30;;
21501;SDS011;27639;48.674;9.242;2023-03-01T02:26:07;18.75;;;13.07;;
21501;SDS011;27639;48.674;9.242;2023-03-01T02:28:40;19.27;;;12.80;;
21501;SDS011;27639;48.674;9.242;2023-03-01T02:31:07;18.48;;;12.38;;
21501;SDS011;27639;48.674;9.242;2023-03-01T02:33:53;18.25;;;12.35;;
21501;SDS011;27639;48.674;9.242;2023-03-01T02:36:21;19.40;;;13.13;;
21501;SDS011;27639;48.674;9.242;2023-03-01T02:38:51;18.45;;;12.77;;
21501;SDS011;27639;48.674;9.242;2023-03-01T02:41:20;19.50;;;12.80;;
21501;SDS011;27639;48.674;9.242;2023-03-01T02:43:48;22.67;;;13.50;;
21501;SDS011;27639;48.674;9.242;2023-03-01T02:46:15;22.02;;;13.52;;
21501;SDS011;27639;48.674;9.242;2023-03-01T02:48:52;20.70;;;12.93;;
21501;SDS011;27639;48.674;9.242;2023-03-01T02:52:04;20.70;;;13.30;;
21501;SDS011;27639;48.674;9.242;2023-03-01T02:56:49;20.95;;;13.35;;
21501;SDS011;27639;48.674;9.242;2023-03-01T02:59:16;21.00;;;13.38;;
21501;SDS011;27639;48.674;9.242;2023-03-01T03:01:45;19.98;;;13.27;;
21501;SDS011;27639;48.674;9.242;2023-03-01T03:04:13;21.50;;;13.95;;
21501;SDS011;27639;48.674;9.242;2023-03-01T03:06:41;19.83;;;13.98;;
21501;SDS011;27639;48.674;9.242;2023-03-01T03:09:08;21.10;;;12.40;;
21501;SDS011;27639;48.674;9.242;2023-03-01T03:11:34;20.00;;;13.18;;
21501;SDS011;27639;48.674;9.242;2023-03-01T03:14:02;20.98;;;13.20;;
21501;SDS011;27639;48.674;9.242;2023-03-01T03:16:28;22.92;;;13.38;;
21501;SDS011;27639;48.674;9.242;2023-03-01T03:18:54;20.45;;;13.18;;
21501;SDS011;27639;48.674;9.242;2023-03-01T03:21:30;19.38;;;12.95;;
21501;SDS011;27639;48.674;9.242;2023-03-01T03:23:57;19.50;;;13.18;;
21501;SDS011;27639;48.674;9.242;2023-03-01T03:26:22;23.52;;;14.57;;
21501;SDS011;27639;48.674;9.242;2023-03-01T03:28:48;22.30;;;13.18;;
21501;SDS011;27639;48.674;9.242;2023-03-01T03:31:14;21.88;;;14.88;;
21501;SDS011;27639;48.674;9.242;2023-03-01T03:33:39;20.40;;;12.88;;
21501;SDS011;27639;48.674;9.242;2023-03-01T03:36:05;19.98;;;13.63;;
21501;SDS011;27639;48.674;9.242;2023-03-01T03:38:31;21.75;;;14.80;;
21501;SDS011;27639;48.674;9.242;2023-03-01T03:41:03;20.40;;;14.05;;
21501;SDS011;27639;48.674;9.242;2023-03-01T03:43:33;19.83;;;13.50;;
21501;SDS011;27639;48.674;9.242;2023-03-01T03:46:01;19.88;;;13.05;;
21501;SDS011;27639;48.674;9.242;2023-03-01T03:48:36;21.98;;;14.02;;
21501;SDS011;27639;48.674;9.242;2023-03-01T03:51:03;22.85;;;14.48;;
21501;SDS011;27639;48.674;9.242;2023-03-01T03:53:32;19.77;;;13.80;;
21501;SDS011;27639;48.674;9.242;2023-03-01T03:55:58;21.83;;;14.15;;
21501;SDS011;27639;48.674;9.242;2023-03-01T03:58:24;22.55;;;13.48;;
21501;SDS011;27639;48.674;9.242;2023-03-01T04:00:52;22.80;;;14.27;;
21501;SDS011;27639;48.674;9.242;2023-03-01T04:03:20;23.05;;;14.88;;
21501;SDS011;27639;48.674;9.242;2023-03-01T04:05:47;21.70;;;14.20;;
21501;SDS011;27639;48.674;9.242;2023-03-01T04:08:15;21.45;;;14.30;;
21501;SDS011;27639;48.674;9.242;2023-03-01T04:10:42;22.92;;;14.55;;
21501;SDS011;27639;48.674;9.242;2023-03-01T04:13:10;21.55;;;14.27;;
21501;SDS011;27639;48.674;9.242;2023-03-01T04:15:37;21.25;;;13.63;;
21501;SDS011;27639;48.674;9.242;2023-03-01T04:18:03;21.65;;;13.88;;
21501;SDS011;27639;48.674;9.242;2023-03-01T04:20:31;20.85;;;14.80;;
21501;SDS011;27639;48.674;9.242;2023-03-01T04:28:05;19.70;;;14.40;;
21501;SDS011;27639;48.674;9.242;2023-03-01T04:30:31;22.05;;;14.15;;
21501;SDS011;27639;48.674;9.242;2023-03-01T04:33:00;20.88;;;13.77;;
21501;SDS011;27639;48.674;9.242;2023-03-01T04:35:28;25.00;;;15.00;;
21501;SDS011;27639;48.674;9.242;2023-03-01T04:37:54;21.30;;;14.20;;
21501;SDS011;27639;48.674;9.242;2023-03-01T04:40:20;23.63;;;14.88;;
21501;SDS011;27639;48.674;9.242;2023-03-01T04:42:46;20.48;;;14.52;;
21501;SDS011;27639;48.674;9.242;2023-03-01T04:45:12;19.65;;;14.10;;
21501;SDS011;27639;48.674;9.242;2023-03-01T04:47:38;21.98;;;14.75;;
21501;SDS011;27639;48.674;9.242;2023-03-01T04:50:05;21.70;;;14.15;;
21501;SDS011;27639;48.674;9.242;2023-03-01T04:52:31;20.38;;;13.90;;
21501;SDS011;27639;48.674;9.242;2023-03-01T04:54:57;23.13;;;14.90;;
21501;SDS011;27639;48.674;9.242;2023-03-01T04:57:22;26.00;;;14.88;;
21501;SDS011;27639;48.674;9.242;2023-03-01T04:59:48;25.33;;;15.48;;
21501;SDS011;27639;48.674;9.242;2023-03-01T05:02:13;21.83;;;14.10;;
21501;SDS011;27639;48.674;9.242;2023-03-01T05:04:39;22.00;;;13.98;;
21501;SDS011;27639;48.674;9.242;2023-03-01T05:07:04;22.10;;;14.90;;
21501;SDS011;27639;48.674;9.242;2023-03-01T05:09:30;23.58;;;14.90;;
21501;SDS011;27639;48.674;9.242;2023-03-01T05:11:56;22.67;;;14.45;;
21501;SDS011;27639;48.674;9.242;2023-03-01T05:14:21;23.40;;;14.32;;
21501;SDS011;27639;48.674;9.242;2023-03-01T05:16:47;24.23;;;15.48;;
21501;SDS011;27639;48.674;9.242;2023-03-01T05:19:13;20.95;;;14.65;;
21501;SDS011;27639;48.674;9.242;2023-03-01T05:24:32;21.67;;;14.25;;
21501;SDS011;27639;48.674;9.242;2023-03-01T05:26:59;21.50;;;14.88;;
21501;SDS011;27639;48.674;9.242;2023-03-01T05:29:26;23.30;;;14.52;;
21501;SDS011;27639;48.674;9.242;2023-03-01T05:31:53;24.30;;;15.50;;
21501;SDS011;27639;48.674;9.242;2023-03-01T05:34:26;23.17;;;15.43;;
21501;SDS011;27639;48.674;9.242;2023-03-01T05:36:53;23.73;;;14.52;;
21501;SDS011;27639;48.674;9.242;2023-03-01T05:39:23;22.80;;;14.57;;
21501;SDS011;27639;48.674;9.242;2023-03-01T05:41:54;23.00;;;15.52;;
21501;SDS011;27639;48.674;9.242;2023-03-01T05:44:21;22.85;;;14.23;;
21501;SDS011;27639;48.674;9.242;2023-03-01T05:46:47;25.63;;;15.00;;
21501;SDS011;27639;48.674;9.242;2023-03-01T05:49:13;22.60;;;14.90;;
21501;SDS011;27639;48.674;9.242;2023-03-01T05:51:42;22.02;;;14.85;;
21501;SDS011;27639;48.674;9.242;2023-03-01T05:54:12;23.27;;;15.32;;
21501;SDS011;27639;48.674;9.242;2023-03-01T05:56:38;24.83;;;15.38;;
21501;SDS011;27639;48.674;9.242;2023-03-01T05:59:04;22.88;;;15.10;;
21501;SDS011;27639;48.674;9.242;2023-03-01T06:01:31;22.10;;;14.68;;
21501;SDS011;27639;48.674;9.242;2023-03-01T06:03:57;25.05;;;15.02;;
21501;SDS011;27639;48.674;9.242;2023-03-01T06:06:23;24.58;;;14.80;;
21501;SDS011;27639;48.674;9.242;2023-03-01T06:08:49;24.85;;;15.70;;
21501;SDS011;27639;48.674;9.242;2023-03-01T06:11:15;23.45;;;14.63;;
21501;SDS011;27639;48.674;9.242;2023-03-01T06:13:41;22.13;;;14.40;;
21501;SDS011;27639;48.674;9.242;2023-03-01T06:16:07;23.73;;;14.80;;
21501;SDS011;27639;48.674;9.242;2023-03-01T06:18:33;22.70;;;14.93;;
21501;SDS011;27639;48.674;9.242;2023-03-01T06:20:59;22.40;;;15.10;;
21501;SDS011;27639;48.674;9.242;2023-03-01T06:23:24;21.15;;;14.48;;
21501;SDS011;27639;48.674;9.242;2023-03-01T06:25:50;21.02;;;15.02;;
21501;SDS011;27639;48.674;9.242;2023-03-01T06:28:16;24.00;;;15.45;;
21501;SDS011;27639;48.674;9.242;2023-03-01T06:30:42;26.65;;;15.82;;
21501;SDS011;27639;48.674;9.242;2023-03-01T06:33:08;21.67;;;14.30;;
21501;SDS011;27639;48.674;9.242;2023-03-01T06:35:33;22.73;;;15.10;;
21501;SDS011;27639;48.674;9.242;2023-03-01T06:38:00;23.25;;;14.65;;
21501;SDS011;27639;48.674;9.242;2023-03-01T06:40:27;25.42;;;15.95;;
21501;SDS011;27639;48.674;9.242;2023-03-01T06:42:53;22.27;;;14.70;;
21501;SDS011;27639;48.674;9.242;2023-03-01T06:45:20;23.88;;;14.55;;
21501;SDS011;27639;48.674;9.242;2023-03-01T06:47:46;22.48;;;14.52;;
21501;SDS011;27639;48.674;9.242;2023-03-01T06:50:12;22.80;;;15.75;;
21501;SDS011;27639;48.674;9.242;2023-03-01T06:52:39;24.83;;;15.35;;
21501;SDS011;27639;48.674;9.242;2023-03-01T06:55:05;22.13;;;14.90;;
21501;SDS011;27639;48.674;9.242;2023-03-01T06:57:31;23.52;;;15.43;;
21501;SDS011;27639;48.674;9.242;2023-03-01T06:59:57;21.77;;;14.30;;
21501;SDS011;27639;48.674;9.242;2023-03-01T07:02:22;22.88;;;15.35;;
21501;SDS011;27639;48.674;9.242;2023-03-01T07:04:49;23.02;;;15.20;;
21501;SDS011;27639;48.674;9.242;2023-03-01T07:07:15;23.73;;;15.25;;
21501;SDS011;27639;48.674;9.242;2023-03-01T07:09:43;22.05;;;14.65;;
21501;SDS011;27639;48.674;9.242;2023-03-01T07:12:11;24.98;;;15.80;;
21501;SDS011;27639;48.674;9.242;2023-03-01T07:14:37;22.25;;;15.05;;
21501;SDS011;27639;48.674;9.242;2023-03-01T07:17:02;25.17;;;15.23;;
21501;SDS011;27639;48.674;9.242;2023-03-01T07:19:28;24.30;;;15.68;;
21501;SDS011;27639;48.674;9.242;2023-03-01T07:21:53;22.35;;;15.27;;
21501;SDS011;27639;48.674;9.242;2023-03-01T07:24:20;24.80;;;16.20;;
21501;SDS011;27639;48.674;9.242;2023-03-01T07:26:50;22.88;;;14.73;;
21501;SDS011;27639;48.674;9.242;2023-03-01T07:29:16;21.73;;;15.35;;
21501;SDS011;27639;48.674;9.242;2023-03-01T07:31:43;23.67;;;14.95;;
21501;SDS011;27639;48.674;9.242;2023-03-01T07:34:08;26.42;;;15.82;;
21501;SDS011;27639;48.674;9.242;2023-03-01T07:36:35;25.42;;;16.10;;
21501;SDS011;27639;48.674;9.242;2023-03-01T07:39:01;24.48;;;16.13;;
21501;SDS011;27639;48.674;9.242;2023-03-01T07:41:28;23.15;;;15.45;;
21501;SDS011;27639;48.674;9.242;2023-03-01T07:43:54;23.63;;;15.60;;
21501;SDS011;27639;48.674;9.242;2023-03-01T07:46:19;22.63;;;14.68;;
21501;SDS011;27639;48.674;9.242;2023-03-01T07:48:45;21.02;;;14.35;;
21501;SDS011;27639;48.674;9.242;2023-03-01T07:51:11;22.38;;;15.70;;
21501;SDS011;27639;48.674;9.242;2023-03-01T07:53:36;24.30;;;15.32;;
21501;SDS011;27639;48.674;9.242;2023-03-01T07:56:09;21.60;;;15.38;;
21501;SDS011;27639;48.674;9.242;2023-03-01T07:58:36;23.45;;;14.80;;
21501;SDS011;27639;48.674;9.242;2023-03-01T08:01:03;22.25;;;14.73;;
21501;SDS011;27639;48.674;9.242;2023-03-01T08:03:34;22.17;;;15.75;;
21501;SDS011;27639;48.674;9.242;2023-03-01T08:06:04;21.60;;;14.43;;
21501;SDS011;27639;48.674;9.242;2023-03-01T08:08:31;22.20;;;15.45;;
21501;SDS011;27639;48.674;9.242;2023-03-01T08:11:01;21.10;;;15.52;;
21501;SDS011;27639;48.674;9.242;2023-03-01T08:13:28;23.63;;;15.05;;
21501;SDS011;27639;48.674;9.242;2023-03-01T08:15:54;25.13;;;15.60;;
21501;SDS011;27639;48.674;9.242;2023-03-01T08:18:20;21.50;;;15.30;;
21501;SDS011;27639;48.674;9.242;2023-03-01T08:20:46;22.50;;;15.15;;
21501;SDS011;27639;48.674;9.242;2023-03-01T08:23:12;24.83;;;15.23;;
21501;SDS011;27639;48.674;9.242;2023-03-01T08:25:38;22.08;;;14.90;;
21501;SDS011;27639;48.674;9.242;2023-03-01T08:28:03;25.10;;;15.90;;
21501;SDS011;27639;48.674;9.242;2023-03-01T08:30:29;23.10;;;15.60;;
21501;SDS011;27639;48.674;9.242;2023-03-01T08:32:55;25.58;;;15.93;;
21501;SDS011;27639;48.674;9.242;2023-03-01T08:35:21;22.00;;;15.48;;
21501;SDS011;27639;48.674;9.242;2023-03-01T08:37:47;22.05;;;15.27;;
21501;SDS011;27639;48.674;9.242;2023-03-01T08:40:13;23.48;;;15.30;;
21501;SDS011;27639;48.674;9.242;2023-03-01T08:42:39;21.83;;;15.88;;
21501;SDS011;27639;48.674;9.242;2023-03-01T08:45:06;21.95;;;15.73;;
21501;SDS011;27639;48.674;9.242;2023-03-01T08:47:32;21.70;;;15.63;;
21501;SDS011;27639;48.674;9.242;2023-03-01T08:49:58;23.90;;;16.10;;
21501;SDS011;27639;48.674;9.242;2023-03-01T08:52:24;22.85;;;15.85;;
21501;SDS011;27639;48.674;9.242;2023-03-01T08:54:51;21.88;;;15.27;;
21501;SDS011;27639;48.674;9.242;2023-03-01T08:57:17;23.73;;;16.20;;
21501;SDS011;27639;48.674;9.242;2023-03-01T08:59:43;20.20;;;13.93;;
21501;SDS011;27639;48.674;9.242;2023-03-01T09:02:11;23.77;;;16.13;;
21501;SDS011;27639;48.674;9.242;2023-03-01T09:04:38;21.80;;;15.02;;
21501;SDS011;27639;48.674;9.242;2023-03-01T09:07:04;20.40;;;14.82;;
21501;SDS011;27639;48.674;9.242;2023-03-01T09:09:30;24.13;;;15.77;;
21501;SDS011;27639;48.674;9.242;2023-03-01T09:11:55;20.42;;;15.07;;
21501;SDS011;27639;48.674;9.242;2023-03-01T09:14:21;22.10;;;15.32;;
21501;SDS011;27639;48.674;9.242;2023-03-01T09:16:46;19.75;;;14.90;;
21501;SDS011;27639;48.674;9.242;2023-03-01T09:19:12;21.60;;;16.10;;
21501;SDS011;27639;48.674;9.242;2023-03-01T09:21:38;22.65;;;15.63;;
21501;SDS011;27639;48.674;9.242;2023-03-01T09:24:04;21.60;;;15.02;;
21501;SDS011;27639;48.674;9.242;2023-03-01T09:26:30;19.27;;;11.38;;
21501;SDS011;27639;48.674;9.242;2023-03-01T09:28:56;22.00;;;15.18;;
21501;SDS011;27639;48.674;9.242;2023-03-01T09:31:22;22.45;;;15.52;;
21501;SDS011;27639;48.674;9.242;2023-03-01T09:33:50;21.38;;;15.52;;
21501;SDS011;27639;48.674;9.242;2023-03-01T09:36:18;23.55;;;17.45;;
21501;SDS011;27639;48.674;9.242;2023-03-01T09:38:45;21.83;;;15.07;;
21501;SDS011;27639;48.674;9.242;2023-03-01T09:46:56;23.60;;;15.82;;
21501;SDS011;27639;48.674;9.242;2023-03-01T09:49:28;24.38;;;16.17;;
21501;SDS011;27639;48.674;9.242;2023-03-01T09:55:11;24.27;;;16.30;;
21501;SDS011;27639;48.674;9.242;2023-03-01T09:57:49;25.85;;;15.85;;
21501;SDS011;27639;48.674;9.242;2023-03-01T10:03:26;24.00;;;16.77;;
21501;SDS011;27639;48.674;9.242;2023-03-01T10:06:01;22.80;;;16.70;;
21501;SDS011;27639;48.674;9.242;2023-03-01T10:11:15;21.60;;;15.00;;
21501;SDS011;27639;48.674;9.242;2023-03-01T10:19:55;21.65;;;15.25;;
21501;SDS011;27639;48.674;9.242;2023-03-01T10:22:55;23.33;;;15.50;;
21501;SDS011;27639;48.674;9.242;2023-03-01T10:25:36;23.95;;;15.77;;
21501;SDS011;27639;48.674;9.242;2023-03-01T10:30:50;22.58;;;15.85;;
21501;SDS011;27639;48.674;9.242;2023-03-01T10:33:17;21.60;;;15.10;;
21501;SDS011;27639;48.674;9.242;2023-03-01T10:35:45;24.50;;;15.98;;
21501;SDS011;27639;48.674;9.242;2023-03-01T10:38:12;22.95;;;15.43;;
21501;SDS011;27639;48.674;9.242;2023-03-01T10:40:55;21.63;;;15.23;;
21501;SDS011;27639;48.674;9.242;2023-03-01T10:46:21;23.30;;;15.82;;
21501;SDS011;27639;48.674;9.242;2023-03-01T10:51:33;19.98;;;14.77;;
21501;SDS011;27639;48.674;9.242;2023-03-01T10:53:58;23.55;;;16.40;;
21501;SDS011;27639;48.674;9.242;2023-03-01T10:56:24;22.10;;;15.35;;
21501;SDS011;27639;48.674;9.242;2023-03-01T10:59:03;23.20;;;15.88;;
21501;SDS011;27639;48.674;9.242;2023-03-01T11:01:32;24.23;;;14.73;;
21501;SDS011;27639;48.674;9.242;2023-03-01T11:04:10;23.35;;;15.88;;
21501;SDS011;27639;48.674;9.242;2023-03-01T11:06:38;19.50;;;14.38;;
21501;SDS011;27639;48.674;9.242;2023-03-01T11:09:22;21.75;;;15.93;;
21501;SDS011;27639;48.674;9.242;2023-03-01T11:11:55;20.00;;;14.32;;
21501;SDS011;27639;48.674;9.242;2023-03-01T11:14:23;20.98;;;14.95;;
21501;SDS011;27639;48.674;9.242;2023-03-01T11:17:03;22.73;;;14.95;;
21501;SDS011;27639;48.674;9.242;2023-03-01T11:20:33;19.48;;;14.27;;
21501;SDS011;27639;48.674;9.242;2023-03-01T11:22:42;20.60;;;14.73;;
21501;SDS011;27639;48.674;9.242;2023-03-01T11:25:13;21.85;;;14.32;;
21501;SDS011;27639;48.674;9.242;2023-03-01T11:27:40;22.65;;;14.15;;
21501;SDS011;27639;48.674;9.242;2023-03-01T11:35:53;20.30;;;14.43;;
21501;SDS011;27639;48.674;9.242;2023-03-01T11:38:25;20.65;;;15.10;;
21501;SDS011;27639;48.674;9.242;2023-03-01T11:43:29;18.13;;;14.63;;
21501;SDS011;27639;48.674;9.242;2023-03-01T11:54:46;19.63;;;14.43;;
21501;SDS011;27639;48.674;9.242;2023-03-01T12:02:43;24.85;;;14.93;;
21501;SDS011;27639;48.674;9.242;2023-03-01T12:08:33;21.60;;;15.45;;
21501;SDS011;27639;48.674;9.242;2023-03-01T12:16:20;21.63;;;15.35;;
21501;SDS011;27639;48.674;9.242;2023-03-01T12:19:01;21.20;;;14.85;;
21501;SDS011;27639;48.674;9.242;2023-03-01T12:35:40;19.67;;;13.68;;
21501;SDS011;27639;48.674;9.242;2023-03-01T12:49:19;19.70;;;13.15;;
21501;SDS011;27639;48.674;9.242;2023-03-01T12:51:51;18.48;;;12.90;;
21501;SDS011;27639;48.674;9.242;2023-03-01T12:54:28;20.57;;;14.90;;
21501;SDS011;27639;48.674;9.242;2023-03-01T12:56:57;17.75;;;13.20;;
21501;SDS011;27639;48.674;9.242;2023-03-01T12:59:34;18.10;;;13.02;;
21501;SDS011;27639;48.674;9.242;2023-03-01T13:02:40;19.85;;;14.65;;
21501;SDS011;27639;48.674;9.242;2023-03-01T13:15:43;20.40;;;13.38;;
21501;SDS011;27639;48.674;9.242;2023-03-01T13:38:59;19.17;;;13.63;;
21501;SDS011;27639;48.674;9.242;2023-03-01T13:44:21;19.27;;;13.82;;
21501;SDS011;27639;48.674;9.242;2023-03-01T13:46:52;21.90;;;13.53;;
21501;SDS011;27639;48.674;9.242;2023-03-01T13:49:25;18.77;;;14.00;;
21501;SDS011;27639;48.674;9.242;2023-03-01T13:51:54;19.75;;;13.57;;
21501;SDS011;27639;48.674;9.242;2023-03-01T13:54:25;18.25;;;13.48;;
21501;SDS011;27639;48.674;9.242;2023-03-01T13:56:55;18.02;;;13.02;;
21501;SDS011;27639;48.674;9.242;2023-03-01T13:59:23;18.02;;;13.40;;
21501;SDS011;27639;48.674;9.242;2023-03-01T14:01:55;18.45;;;13.02;;
21501;SDS011;27639;48.674;9.242;2023-03-01T14:04:28;16.67;;;12.90;;
21501;SDS011;27639;48.674;9.242;2023-03-01T14:09:36;16.90;;;13.60;;
21501;SDS011;27639;48.674;9.242;2023-03-01T14:12:13;19.25;;;13.35;;
21501;SDS011;27639;48.674;9.242;2023-03-01T14:14:54;15.88;;;12.15;;
21501;SDS011;27639;48.674;9.242;2023-03-01T14:20:19;17.00;;;12.20;;
21501;SDS011;27639;48.674;9.242;2023-03-01T14:22:46;15.73;;;11.15;;
21501;SDS011;27639;48.674;9.242;2023-03-01T14:27:55;17.92;;;12.57;;
21501;SDS011;27639;48.674;9.242;2023-03-01T14:30:27;17.38;;;12.15;;
21501;SDS011;27639;48.674;9.242;2023-03-01T14:33:04;18.67;;;12.13;;
21501;SDS011;27639;48.674;9.242;2023-03-01T14:35:32;17.67;;;12.50;;
21501;SDS011;27639;48.674;9.242;2023-03-01T14:38:00;15.02;;;11.85;;
21501;SDS011;27639;48.674;9.242;2023-03-01T14:42:51;16.85;;;11.82;;
21501;SDS011;27639;48.674;9.242;2023-03-01T14:45:20;17.33;;;11.82;;
21501;SDS011;27639;48.674;9.242;2023-03-01T14:47:46;16.83;;;12.30;;
21501;SDS011;27639;48.674;9.242;2023-03-01T14:50:26;15.57;;;11.45;;
21501;SDS011;27639;48.674;9.242;2023-03-01T14:52:57;17.90;;;12.02;;
21501;SDS011;27639;48.674;9.242;2023-03-01T14:55:30;15.68;;;11.68;;
21501;SDS011;27639;48.674;9.242;2023-03-01T14:57:59;17.00;;;12.45;;
21501;SDS011;27639;48.674;9.242;2023-03-01T15:00:28;19.52;;;13.10;;
21501;SDS011;27639;48.674;9.242;2023-03-01T15:02:56;18.10;;;13.10;;
21501;SDS011;27639;48.674;9.242;2023-03-01T15:05:28;19.08;;;13.25;;
21501;SDS011;27639;48.674;9.242;2023-03-01T15:07:56;18.60;;;12.98;;
21501;SDS011;27639;48.674;9.242;2023-03-01T15:10:34;20.52;;;13.85;;
21501;SDS011;27639;48.674;9.242;2023-03-01T15:13:11;17.02;;;12.55;;
21501;SDS011;27639;48.674;9.242;2023-03-01T15:15:49;19.30;;;12.68;;
21501;SDS011;27639;48.674;9.242;2023-03-01T15:18:28;17.60;;;12.43;;
21501;SDS011;27639;48.674;9.242;2023-03-01T15:20:54;18.05;;;13.00;;
21501;SDS011;27639;48.674;9.242;2023-03-01T15:23:29;20.05;;;13.02;;
21501;SDS011;27639;48.674;9.242;2023-03-01T15:25:56;17.20;;;12.90;;
21501;SDS011;27639;48.674;9.242;2023-03-01T15:28:26;16.50;;;12.38;;
21501;SDS011;27639;48.674;9.242;2023-03-01T15:31:00;17.48;;;12.52;;
21501;SDS011;27639;48.674;9.242;2023-03-01T15:33:29;18.35;;;12.18;;
21501;SDS011;27639;48.674;9.242;2023-03-01T15:39:22;17.15;;;12.27;;
21501;SDS011;27639;48.674;9.242;2023-03-01T15:41:52;19.00;;;12.90;;
21501;SDS011;27639;48.674;9.242;2023-03-01T15:44:24;17.73;;;13.38;;
21501;SDS011;27639;48.674;9.242;2023-03-01T15:46:50;18.85;;;13.02;;
21501;SDS011;27639;48.674;9.242;2023-03-01T15:51:54;18.98;;;13.32;;
21501;SDS011;27639;48.674;9.242;2023-03-01T15:54:21;17.00;;;12.18;;
21501;SDS011;27639;48.674;9.242;2023-03-01T15:56:48;19.55;;;12.60;;
21501;SDS011;27639;48.674;9.242;2023-03-01T15:59:14;16.90;;;12.05;;
21501;SDS011;27639;48.674;9.242;2023-03-01T16:01:40;17.10;;;12.05;;
21501;SDS011;27639;48.674;9.242;2023-03-01T16:04:06;20.45;;;12.55;;
21501;SDS011;27639;48.674;9.242;2023-03-01T16:06:31;18.30;;;12.80;;
21501;SDS011;27639;48.674;9.242;2023-03-01T16:08:57;18.98;;;12.60;;
21501;SDS011;27639;48.674;9.242;2023-03-01T16:11:23;19.05;;;12.63;;
21501;SDS011;27639;48.674;9.242;2023-03-01T16:13:48;19.17;;;12.88;;
21501;SDS011;27639;48.674;9.242;2023-03-01T16:16:14;20.10;;;12.93;;
21501;SDS011;27639;48.674;9.242;2023-03-01T16:18:47;18.73;;;12.80;;
21501;SDS011;27639;48.674;9.242;2023-03-01T16:21:13;20.55;;;12.93;;
21501;SDS011;27639;48.674;9.242;2023-03-01T16:23:47;19.17;;;12.85;;
21501;SDS011;27639;48.674;9.242;2023-03-01T16:26:13;19.20;;;12.38;;
21501;SDS011;27639;48.674;9.242;2023-03-01T16:28:39;17.35;;;12.15;;
21501;SDS011;27639;48.674;9.242;2023-03-01T16:31:06;17.98;;;12.60;;
21501;SDS011;27639;48.674;9.242;2023-03-01T16:33:32;20.10;;;12.98;;
21501;SDS011;27639;48.674;9.242;2023-03-01T16:35:59;18.77;;;13.68;;
21501;SDS011;27639;48.674;9.242;2023-03-01T16:38:36;20.98;;;13.88;;
21501;SDS011;27639;48.674;9.242;2023-03-01T16:41:03;21.73;;;14.43;;
21501;SDS011;27639;48.674;9.242;2023-03-01T16:43:29;21.20;;;14.35;;
21501;SDS011;27639;48.674;9.242;2023-03-01T16:45:56;23.10;;;15.48;;
21501;SDS011;27639;48.674;9.242;2023-03-01T16:48:21;23.00;;;13.32;;
21501;SDS011;27639;48.674;9.242;2023-03-01T16:50:57;23.30;;;15.45;;
21501;SDS011;27639;48.674;9.242;2023-03-01T16:53:26;23.65;;;15.40;;
21501;SDS011;27639;48.674;9.242;2023-03-01T16:55:56;19.48;;;14.10;;